Aérodrome :
LOGIN :

S'inscrire | Disclaimer

   EN    FR    IT 

 










Légende :    VFR   VFR Marginal   IFR   IFR Intensif   IFR Très Intensif
Visi : 
Plafond : 
>= 8 km
>= 3000ft
5 à 8 km
1000 à 3000 ft
1500m à 5 km
500 à 1000 ft
800 à 1500m
200 à 500 ft
< 800m
< 200 ft
Symboles :   Orages  Brouillard  Fortes neiges  Fortes précipitations  Vent > 20 kt
SIGMETs :   Divers  Orages  Givrage  Turbulence  Onde Orograph.  Cendres Volcan.






- Altitude de l'aérodrome : 171 ft
- Code IATA : EGC


LFBE - Bergerac

DERNIER METAR :
  • 191800Z AUTO 08003KT 6000 NSC 03/02 Q1016 NOSIG

METARs EXPIRÉS :
  • 191730Z AUTO VRB02KT CAVOK 04/03 Q1016 NOSIG
  • 191700Z AUTO 15003KT CAVOK 05/03 Q1016 NOSIG
  • 191630Z AUTO 00000KT 9999 BKN039 07/03 Q1016 NOSIG
  • 191600Z AUTO 20001KT 9999 BKN040 09/04 Q1017 NOSIG
  • 191530Z AUTO 18001KT 9999 BKN043 09/03 Q1017 NOSIG

TAF TAF LFBE
Valide du 19 à 18h jusqu'au 20 à 18h UTC


191700Z 1918/2018 10004KT 8000 BKN040
PROB40 1920/2011 3000 BR
PROB30 1922/2010 0400 FG VV///



MET'MAP, la Météo Aéronautique d'un coup d'oeil ! - Copyright ORBIFLY Décembre 2007 - Disclaimer

ORBIFLY MET'MAP TEAM :

Programmation & Développement : Alexandra Zaïnal
Conception & Développement : Baudouin d'Aumeries
Co-Programmation & Développement : Marc-Olivier Méhu
Soutien technique & logistique : Manuel Goepfert

Contact : metmap@orbifly.com




SOURCES & CREDITS :

   NOAA